sensor_id;sensor_type;location;lat;lon;timestamp;pressure;altitude;pressure_sealevel;temperature;humidity
32761;BME280;19126;47.472;7.850;2023-08-30T00:01:19;96098.00;;;11.98;23.87
32761;BME280;19126;47.472;7.850;2023-08-30T00:03:48;96094.75;;;11.96;24.46
32761;BME280;19126;47.472;7.850;2023-08-30T00:06:15;96091.94;;;11.97;23.96
32761;BME280;19126;47.472;7.850;2023-08-30T00:08:42;96091.94;;;11.97;23.63
32761;BME280;19126;47.472;7.850;2023-08-30T00:11:09;96087.47;;;11.98;23.32
32761;BME280;19126;47.472;7.850;2023-08-30T00:13:37;96085.69;;;11.98;22.82
32761;BME280;19126;47.472;7.850;2023-08-30T00:16:04;96085.84;;;11.97;22.92
32761;BME280;19126;47.472;7.850;2023-08-30T00:18:32;96081.59;;;11.96;22.40
32761;BME280;19126;47.472;7.850;2023-08-30T00:21:01;96084.25;;;11.96;21.85
32761;BME280;19126;47.472;7.850;2023-08-30T00:23:28;96085.69;;;11.98;21.57
32761;BME280;19126;47.472;7.850;2023-08-30T00:25:55;96084.44;;;11.94;21.81
32761;BME280;19126;47.472;7.850;2023-08-30T00:28:23;96083.00;;;11.92;21.68
32761;BME280;19126;47.472;7.850;2023-08-30T00:30:54;96081.38;;;11.91;22.09
32761;BME280;19126;47.472;7.850;2023-08-30T00:33:21;96083.41;;;11.88;21.59
32761;BME280;19126;47.472;7.850;2023-08-30T00:35:56;96081.16;;;11.85;21.55
32761;BME280;19126;47.472;7.850;2023-08-30T00:38:27;96078.28;;;11.80;21.35
32761;BME280;19126;47.472;7.850;2023-08-30T00:40:55;96079.47;;;11.78;21.40
32761;BME280;19126;47.472;7.850;2023-08-30T00:43:22;96074.59;;;11.75;20.85
32761;BME280;19126;47.472;7.850;2023-08-30T00:45:50;96067.94;;;11.72;20.79
32761;BME280;19126;47.472;7.850;2023-08-30T00:48:19;96070.97;;;11.69;20.55
32761;BME280;19126;47.472;7.850;2023-08-30T00:50:47;96063.44;;;11.66;21.33
32761;BME280;19126;47.472;7.850;2023-08-30T00:53:16;96069.91;;;11.63;21.45
32761;BME280;19126;47.472;7.850;2023-08-30T00:55:45;96066.84;;;11.60;21.18
32761;BME280;19126;47.472;7.850;2023-08-30T00:58:13;96064.00;;;11.54;21.63
32761;BME280;19126;47.472;7.850;2023-08-30T01:00:40;96060.53;;;11.54;21.70
32761;BME280;19126;47.472;7.850;2023-08-30T01:03:08;96059.31;;;11.50;21.39
32761;BME280;19126;47.472;7.850;2023-08-30T01:05:35;96062.53;;;11.45;21.86
32761;BME280;19126;47.472;7.850;2023-08-30T01:08:03;96052.41;;;11.42;22.56
32761;BME280;19126;47.472;7.850;2023-08-30T01:10:50;96057.22;;;11.38;22.15
32761;BME280;19126;47.472;7.850;2023-08-30T01:13:20;96057.59;;;11.35;22.34
32761;BME280;19126;47.472;7.850;2023-08-30T01:15:48;96062.84;;;11.28;22.51
32761;BME280;19126;47.472;7.850;2023-08-30T01:18:18;96062.59;;;11.23;22.44
32761;BME280;19126;47.472;7.850;2023-08-30T01:20:49;96055.47;;;11.17;23.17
32761;BME280;19126;47.472;7.850;2023-08-30T01:23:29;96063.31;;;11.10;23.42
32761;BME280;19126;47.472;7.850;2023-08-30T01:26:09;96058.03;;;11.10;23.28
32761;BME280;19126;47.472;7.850;2023-08-30T01:28:41;96054.78;;;11.08;23.79
32761;BME280;19126;47.472;7.850;2023-08-30T01:31:09;96052.75;;;11.04;23.82
32761;BME280;19126;47.472;7.850;2023-08-30T01:33:38;96057.56;;;11.00;24.28
32761;BME280;19126;47.472;7.850;2023-08-30T01:36:06;96057.31;;;10.95;24.16
32761;BME280;19126;47.472;7.850;2023-08-30T01:38:34;96054.47;;;10.90;24.42
32761;BME280;19126;47.472;7.850;2023-08-30T01:41:02;96047.78;;;10.87;24.46
32761;BME280;19126;47.472;7.850;2023-08-30T01:43:32;96050.78;;;10.84;24.33
32761;BME280;19126;47.472;7.850;2023-08-30T01:46:02;96052.78;;;10.82;24.03
32761;BME280;19126;47.472;7.850;2023-08-30T01:48:31;96056.84;;;10.84;24.24
32761;BME280;19126;47.472;7.850;2023-08-30T01:51:00;96061.31;;;10.84;23.75
32761;BME280;19126;47.472;7.850;2023-08-30T01:53:28;96059.06;;;10.81;23.76
32761;BME280;19126;47.472;7.850;2023-08-30T01:55:56;96060.84;;;10.80;23.24
32761;BME280;19126;47.472;7.850;2023-08-30T01:58:23;96057.59;;;10.78;23.93
32761;BME280;19126;47.472;7.850;2023-08-30T02:00:50;96066.09;;;10.80;23.59
32761;BME280;19126;47.472;7.850;2023-08-30T02:03:19;96064.47;;;10.79;23.38
32761;BME280;19126;47.472;7.850;2023-08-30T02:05:56;96066.31;;;10.79;22.90
32761;BME280;19126;47.472;7.850;2023-08-30T02:08:29;96071.94;;;10.76;24.04
32761;BME280;19126;47.472;7.850;2023-08-30T02:11:08;96065.84;;;10.75;22.82
32761;BME280;19126;47.472;7.850;2023-08-30T02:13:40;96058.97;;;10.74;23.33
32761;BME280;19126;47.472;7.850;2023-08-30T02:16:09;96049.47;;;10.73;23.11
32761;BME280;19126;47.472;7.850;2023-08-30T02:18:38;96059.97;;;10.73;22.81
32761;BME280;19126;47.472;7.850;2023-08-30T02:21:06;96049.06;;;10.69;22.84
32761;BME280;19126;47.472;7.850;2023-08-30T02:23:33;96049.84;;;10.70;22.54
32761;BME280;19126;47.472;7.850;2023-08-30T02:26:02;96044.59;;;10.70;22.89
32761;BME280;19126;47.472;7.850;2023-08-30T02:28:30;96056.72;;;10.71;22.55
32761;BME280;19126;47.472;7.850;2023-08-30T02:30:57;96049.69;;;10.72;22.07
32761;BME280;19126;47.472;7.850;2023-08-30T02:33:24;96044.44;;;10.72;21.71
32761;BME280;19126;47.472;7.850;2023-08-30T02:35:53;96034.72;;;10.72;22.02
32761;BME280;19126;47.472;7.850;2023-08-30T02:38:20;96034.53;;;10.74;20.84
32761;BME280;19126;47.472;7.850;2023-08-30T02:40:48;96045.66;;;10.76;21.23
32761;BME280;19126;47.472;7.850;2023-08-30T02:43:16;96033.34;;;10.76;21.49
32761;BME280;19126;47.472;7.850;2023-08-30T02:45:43;96039.03;;;10.80;20.45
32761;BME280;19126;47.472;7.850;2023-08-30T02:48:11;96033.34;;;10.76;21.00
32761;BME280;19126;47.472;7.850;2023-08-30T02:50:38;96034.16;;;10.77;20.61
32761;BME280;19126;47.472;7.850;2023-08-30T02:53:07;96043.66;;;10.78;19.91
32761;BME280;19126;47.472;7.850;2023-08-30T02:55:35;96041.84;;;10.78;19.96
32761;BME280;19126;47.472;7.850;2023-08-30T02:58:02;96043.84;;;10.76;20.26
32761;BME280;19126;47.472;7.850;2023-08-30T03:00:30;96039.59;;;10.75;19.99
32761;BME280;19126;47.472;7.850;2023-08-30T03:02:57;96036.97;;;10.75;20.36
32761;BME280;19126;47.472;7.850;2023-08-30T03:05:24;96031.91;;;10.74;19.39
32761;BME280;19126;47.472;7.850;2023-08-30T03:07:53;96026.44;;;10.75;19.83
32761;BME280;19126;47.472;7.850;2023-08-30T03:10:22;96024.03;;;10.74;19.70
32761;BME280;19126;47.472;7.850;2023-08-30T03:12:49;96022.41;;;10.73;19.31
32761;BME280;19126;47.472;7.850;2023-08-30T03:15:17;96025.03;;;10.73;18.99
32761;BME280;19126;47.472;7.850;2023-08-30T03:17:45;96022.41;;;10.73;19.10
32761;BME280;19126;47.472;7.850;2023-08-30T03:20:13;96022.59;;;10.71;19.31
32761;BME280;19126;47.472;7.850;2023-08-30T03:22:41;96028.66;;;10.72;19.36
32761;BME280;19126;47.472;7.850;2023-08-30T03:25:12;96022.59;;;10.71;19.15
32761;BME280;19126;47.472;7.850;2023-08-30T03:27:42;96022.59;;;10.71;18.62
32761;BME280;19126;47.472;7.850;2023-08-30T03:30:12;96026.03;;;10.72;18.73
32761;BME280;19126;47.472;7.850;2023-08-30T03:32:39;96022.41;;;10.73;18.29
32761;BME280;19126;47.472;7.850;2023-08-30T03:35:07;96025.84;;;10.73;18.53
32761;BME280;19126;47.472;7.850;2023-08-30T03:37:36;96020.41;;;10.75;18.47
32761;BME280;19126;47.472;7.850;2023-08-30T03:40:04;96016.78;;;10.76;18.07
32761;BME280;19126;47.472;7.850;2023-08-30T03:42:32;96020.41;;;10.75;18.14
32761;BME280;19126;47.472;7.850;2023-08-30T03:45:01;96022.03;;;10.76;18.35
32761;BME280;19126;47.472;7.850;2023-08-30T03:47:29;96012.69;;;10.73;18.54
32761;BME280;19126;47.472;7.850;2023-08-30T03:49:56;96022.19;;;10.74;18.11
32761;BME280;19126;47.472;7.850;2023-08-30T03:52:24;96022.19;;;10.74;17.97
32761;BME280;19126;47.472;7.850;2023-08-30T03:54:52;96025.66;;;10.75;18.10
32761;BME280;19126;47.472;7.850;2023-08-30T03:57:19;96019.78;;;10.73;17.85
32761;BME280;19126;47.472;7.850;2023-08-30T03:59:47;96027.66;;;10.73;18.23
32761;BME280;19126;47.472;7.850;2023-08-30T04:02:15;96020.56;;;10.73;18.01
32761;BME280;19126;47.472;7.850;2023-08-30T04:04:43;96016.31;;;10.72;17.68
32761;BME280;19126;47.472;7.850;2023-08-30T04:07:10;96026.28;;;10.77;17.87
32761;BME280;19126;47.472;7.850;2023-08-30T04:09:38;96009.44;;;10.71;18.15
32761;BME280;19126;47.472;7.850;2023-08-30T04:12:06;96017.31;;;10.71;18.11
32761;BME280;19126;47.472;7.850;2023-08-30T04:14:33;96014.53;;;10.73;17.84
32761;BME280;19126;47.472;7.850;2023-08-30T04:17:01;96022.41;;;10.73;17.44
32761;BME280;19126;47.472;7.850;2023-08-30T04:19:30;96020.97;;;10.70;17.67
32761;BME280;19126;47.472;7.850;2023-08-30T04:21:57;96014.91;;;10.69;17.35
32761;BME280;19126;47.472;7.850;2023-08-30T04:24:25;96019.53;;;10.67;17.69
32761;BME280;19126;47.472;7.850;2023-08-30T04:26:52;96022.78;;;10.69;17.83
32761;BME280;19126;47.472;7.850;2023-08-30T04:29:21;96019.16;;;10.70;17.26
32761;BME280;19126;47.472;7.850;2023-08-30T04:31:48;96023.97;;;10.67;17.81
32761;BME280;19126;47.472;7.850;2023-08-30T04:34:16;96027.22;;;10.69;17.72
32761;BME280;19126;47.472;7.850;2023-08-30T04:36:45;96025.16;;;10.64;18.04
32761;BME280;19126;47.472;7.850;2023-08-30T04:39:13;96029.22;;;10.67;17.20
32761;BME280;19126;47.472;7.850;2023-08-30T04:41:41;96028.41;;;10.66;17.29
32761;BME280;19126;47.472;7.850;2023-08-30T04:44:09;96030.84;;;10.68;17.53
32761;BME280;19126;47.472;7.850;2023-08-30T04:46:36;96032.66;;;10.67;17.21
32761;BME280;19126;47.472;7.850;2023-08-30T04:49:03;96024.78;;;10.67;17.51
32761;BME280;19126;47.472;7.850;2023-08-30T04:51:31;96028.03;;;10.69;17.23
32761;BME280;19126;47.472;7.850;2023-08-30T04:54:00;96030.66;;;10.69;17.24
32761;BME280;19126;47.472;7.850;2023-08-30T04:56:27;96026.41;;;10.68;17.73
32761;BME280;19126;47.472;7.850;2023-08-30T04:58:54;96022.59;;;10.71;16.96
32761;BME280;19126;47.472;7.850;2023-08-30T05:01:23;96024.81;;;10.74;17.24
32761;BME280;19126;47.472;7.850;2023-08-30T05:03:50;96027.91;;;10.78;16.98
32761;BME280;19126;47.472;7.850;2023-08-30T05:06:18;96028.53;;;10.80;17.58
32761;BME280;19126;47.472;7.850;2023-08-30T05:08:45;96035.03;;;10.84;16.84
32761;BME280;19126;47.472;7.850;2023-08-30T05:11:17;96030.41;;;10.86;17.15
32761;BME280;19126;47.472;7.850;2023-08-30T05:13:45;96028.38;;;10.88;17.06
32761;BME280;19126;47.472;7.850;2023-08-30T05:16:12;96030.81;;;10.90;17.25
32761;BME280;19126;47.472;7.850;2023-08-30T05:18:39;96029.44;;;10.94;17.30
32761;BME280;19126;47.472;7.850;2023-08-30T05:21:07;96036.13;;;10.96;17.09
32761;BME280;19126;47.472;7.850;2023-08-30T05:23:34;96032.72;;;11.03;17.15
32761;BME280;19126;47.472;7.850;2023-08-30T05:26:01;96042.88;;;11.06;17.26
32761;BME280;19126;47.472;7.850;2023-08-30T05:28:30;96036.78;;;11.05;17.67
32761;BME280;19126;47.472;7.850;2023-08-30T05:30:58;96033.97;;;11.07;17.78
32761;BME280;19126;47.472;7.850;2023-08-30T05:33:25;96034.59;;;11.09;18.08
32761;BME280;19126;47.472;7.850;2023-08-30T05:35:52;96039.25;;;11.13;18.08
32761;BME280;19126;47.472;7.850;2023-08-30T05:38:20;96034.00;;;11.13;18.53
32761;BME280;19126;47.472;7.850;2023-08-30T05:40:47;96042.34;;;11.17;19.37
32761;BME280;19126;47.472;7.850;2023-08-30T05:43:15;96037.31;;;11.22;18.78
32761;BME280;19126;47.472;7.850;2023-08-30T05:45:44;96039.97;;;11.29;19.24
32761;BME280;19126;47.472;7.850;2023-08-30T05:48:11;96047.91;;;11.36;19.69
32761;BME280;19126;47.472;7.850;2023-08-30T05:50:39;96042.84;;;11.34;19.99
32761;BME280;19126;47.472;7.850;2023-08-30T05:53:06;96041.44;;;11.38;20.39
32761;BME280;19126;47.472;7.850;2023-08-30T05:55:34;96039.25;;;11.42;20.82
32761;BME280;19126;47.472;7.850;2023-08-30T05:58:01;96047.16;;;11.49;21.19
32761;BME280;19126;47.472;7.850;2023-08-30T06:00:29;96047.59;;;11.52;21.35
32761;BME280;19126;47.472;7.850;2023-08-30T06:02:58;96043.38;;;11.58;22.04
32761;BME280;19126;47.472;7.850;2023-08-30T06:05:26;96053.31;;;11.63;21.94
32761;BME280;19126;47.472;7.850;2023-08-30T06:07:54;96052.16;;;11.72;22.54
32761;BME280;19126;47.472;7.850;2023-08-30T06:10:21;96043.25;;;11.80;22.34
32761;BME280;19126;47.472;7.850;2023-08-30T06:12:49;96047.16;;;11.91;21.95
32761;BME280;19126;47.472;7.850;2023-08-30T06:15:16;96052.25;;;11.99;21.96
32761;BME280;19126;47.472;7.850;2023-08-30T06:17:44;96049.09;;;12.10;22.21
32761;BME280;19126;47.472;7.850;2023-08-30T06:20:13;96049.13;;;12.24;23.28
32761;BME280;19126;47.472;7.850;2023-08-30T06:22:41;96039.81;;;12.21;26.85
32761;BME280;19126;47.472;7.850;2023-08-30T06:25:09;96039.81;;;12.21;30.74
32761;BME280;19126;47.472;7.850;2023-08-30T06:27:42;96042.25;;;12.29;34.69
32761;BME280;19126;47.472;7.850;2023-08-30T06:30:11;96044.31;;;12.41;38.34
32761;BME280;19126;47.472;7.850;2023-08-30T06:32:38;96036.59;;;12.53;40.73
32761;BME280;19126;47.472;7.850;2023-08-30T06:35:06;96043.91;;;12.64;43.65
32761;BME280;19126;47.472;7.850;2023-08-30T06:37:36;96044.53;;;12.80;45.94
32761;BME280;19126;47.472;7.850;2023-08-30T06:40:04;96043.13;;;13.04;47.93
32761;BME280;19126;47.472;7.850;2023-08-30T06:42:32;96046.53;;;13.18;53.57
32761;BME280;19126;47.472;7.850;2023-08-30T06:44:59;96038.63;;;13.38;60.11
32761;BME280;19126;47.472;7.850;2023-08-30T06:47:27;96043.06;;;13.58;61.32
32761;BME280;19126;47.472;7.850;2023-08-30T06:49:54;96042.00;;;13.79;65.43
32761;BME280;19126;47.472;7.850;2023-08-30T06:52:21;96038.16;;;13.75;79.91
32761;BME280;19126;47.472;7.850;2023-08-30T06:54:50;96037.44;;;13.93;83.96
32761;BME280;19126;47.472;7.850;2023-08-30T06:57:18;96039.84;;;14.01;89.15
32761;BME280;19126;47.472;7.850;2023-08-30T06:59:45;96038.81;;;14.09;92.78
32761;BME280;19126;47.472;7.850;2023-08-30T07:02:13;96041.41;;;14.16;96.76
32761;BME280;19126;47.472;7.850;2023-08-30T07:04:40;96040.78;;;14.20;100.00
32761;BME280;19126;47.472;7.850;2023-08-30T07:07:08;96041.22;;;14.17;100.00
32761;BME280;19126;47.472;7.850;2023-08-30T07:09:38;96038.50;;;14.31;100.00
32761;BME280;19126;47.472;7.850;2023-08-30T07:12:07;96035.78;;;14.44;100.00
32761;BME280;19126;47.472;7.850;2023-08-30T07:14:34;96032.41;;;14.62;100.00
32761;BME280;19126;47.472;7.850;2023-08-30T07:17:02;96046.81;;;14.67;100.00
32761;BME280;19126;47.472;7.850;2023-08-30T07:19:29;96041.72;;;14.65;100.00
32761;BME280;19126;47.472;7.850;2023-08-30T07:21:57;96042.69;;;14.77;100.00
32761;BME280;19126;47.472;7.850;2023-08-30T07:24:24;96045.81;;;14.93;100.00
32761;BME280;19126;47.472;7.850;2023-08-30T07:26:51;96045.97;;;14.98;100.00
32761;BME280;19126;47.472;7.850;2023-08-30T07:29:20;96034.66;;;15.16;100.00
32761;BME280;19126;47.472;7.850;2023-08-30T07:31:48;96044.50;;;15.28;100.00
32761;BME280;19126;47.472;7.850;2023-08-30T07:34:17;96036.81;;;15.45;100.00
32761;BME280;19126;47.472;7.850;2023-08-30T07:36:44;96040.94;;;15.59;100.00
32761;BME280;19126;47.472;7.850;2023-08-30T07:39:17;96036.75;;;15.70;100.00
32761;BME280;19126;47.472;7.850;2023-08-30T07:41:45;96039.97;;;15.72;100.00
32761;BME280;19126;47.472;7.850;2023-08-30T07:44:12;96030.38;;;15.96;100.00
32761;BME280;19126;47.472;7.850;2023-08-30T07:46:41;96045.81;;;16.30;100.00
32761;BME280;19126;47.472;7.850;2023-08-30T07:49:09;96045.16;;;16.35;100.00
32761;BME280;19126;47.472;7.850;2023-08-30T07:51:36;96048.47;;;16.30;100.00
32761;BME280;19126;47.472;7.850;2023-08-30T07:54:04;96050.22;;;16.36;100.00
32761;BME280;19126;47.472;7.850;2023-08-30T07:56:31;96049.31;;;16.43;100.00
32761;BME280;19126;47.472;7.850;2023-08-30T07:58:59;96044.38;;;16.46;100.00
32761;BME280;19126;47.472;7.850;2023-08-30T08:01:26;96043.03;;;16.55;100.00
32761;BME280;19126;47.472;7.850;2023-08-30T08:03:55;96052.72;;;16.62;100.00
32761;BME280;19126;47.472;7.850;2023-08-30T08:06:23;96048.03;;;16.76;100.00
32761;BME280;19126;47.472;7.850;2023-08-30T08:08:50;96044.00;;;16.85;100.00
32761;BME280;19126;47.472;7.850;2023-08-30T08:11:18;96047.28;;;16.99;100.00
32761;BME280;19126;47.472;7.850;2023-08-30T08:13:45;96037.16;;;17.20;100.00
32761;BME280;19126;47.472;7.850;2023-08-30T08:16:13;96038.31;;;17.36;100.00
32761;BME280;19126;47.472;7.850;2023-08-30T08:18:40;96042.91;;;17.52;100.00
32761;BME280;19126;47.472;7.850;2023-08-30T08:21:09;96040.34;;;17.69;100.00
32761;BME280;19126;47.472;7.850;2023-08-30T08:23:37;96053.38;;;17.83;100.00
32761;BME280;19126;47.472;7.850;2023-08-30T08:26:05;96053.34;;;17.95;98.88
32761;BME280;19126;47.472;7.850;2023-08-30T08:28:33;96044.56;;;17.94;96.38
32761;BME280;19126;47.472;7.850;2023-08-30T08:31:01;96052.63;;;18.11;97.91
32761;BME280;19126;47.472;7.850;2023-08-30T08:33:28;96045.69;;;17.98;91.73
32761;BME280;19126;47.472;7.850;2023-08-30T08:35:56;96050.44;;;18.08;96.99
32761;BME280;19126;47.472;7.850;2023-08-30T08:38:25;96048.38;;;18.10;93.39
32761;BME280;19126;47.472;7.850;2023-08-30T08:41:00;96052.34;;;18.25;97.05
32761;BME280;19126;47.472;7.850;2023-08-30T08:43:29;96048.97;;;18.29;93.05
32761;BME280;19126;47.472;7.850;2023-08-30T08:46:00;96055.97;;;18.48;92.48
32761;BME280;19126;47.472;7.850;2023-08-30T08:48:29;96049.59;;;18.49;90.56
32761;BME280;19126;47.472;7.850;2023-08-30T08:50:58;96055.09;;;18.59;91.56
32761;BME280;19126;47.472;7.850;2023-08-30T08:53:28;96057.06;;;18.64;89.44
32761;BME280;19126;47.472;7.850;2023-08-30T08:55:58;96061.09;;;18.83;90.43
32761;BME280;19126;47.472;7.850;2023-08-30T08:58:28;96067.91;;;19.08;89.80
32761;BME280;19126;47.472;7.850;2023-08-30T09:00:55;96071.53;;;19.36;92.26
32761;BME280;19126;47.472;7.850;2023-08-30T09:03:23;96068.25;;;19.51;85.19
32761;BME280;19126;47.472;7.850;2023-08-30T09:05:51;96064.88;;;19.56;89.22
32761;BME280;19126;47.472;7.850;2023-08-30T09:08:20;96065.25;;;19.65;86.82
32761;BME280;19126;47.472;7.850;2023-08-30T09:10:49;96067.56;;;19.78;84.72
32761;BME280;19126;47.472;7.850;2023-08-30T09:13:16;96063.41;;;19.65;79.49
32761;BME280;19126;47.472;7.850;2023-08-30T09:15:44;96063.22;;;19.72;82.45
32761;BME280;19126;47.472;7.850;2023-08-30T09:18:18;96059.97;;;19.87;85.84
32761;BME280;19126;47.472;7.850;2023-08-30T09:20:46;96061.19;;;19.79;79.42
32761;BME280;19126;47.472;7.850;2023-08-30T09:23:20;96064.09;;;19.95;85.17
32761;BME280;19126;47.472;7.850;2023-08-30T09:25:54;96063.41;;;20.04;81.37
32761;BME280;19126;47.472;7.850;2023-08-30T09:28:22;96058.31;;;20.03;80.21
32761;BME280;19126;47.472;7.850;2023-08-30T09:30:50;96064.06;;;20.17;83.67
32761;BME280;19126;47.472;7.850;2023-08-30T09:33:21;96057.63;;;20.35;80.42
32761;BME280;19126;47.472;7.850;2023-08-30T09:35:49;96048.50;;;20.58;81.14
32761;BME280;19126;47.472;7.850;2023-08-30T09:38:17;96052.88;;;20.70;77.25
32761;BME280;19126;47.472;7.850;2023-08-30T09:40:45;96054.88;;;20.79;80.12
32761;BME280;19126;47.472;7.850;2023-08-30T09:43:14;96048.47;;;20.81;81.28
32761;BME280;19126;47.472;7.850;2023-08-30T09:45:45;96044.31;;;20.95;72.24
32761;BME280;19126;47.472;7.850;2023-08-30T09:48:12;96052.16;;;21.12;75.47
32761;BME280;19126;47.472;7.850;2023-08-30T09:50:42;96050.69;;;21.27;78.08
32761;BME280;19126;47.472;7.850;2023-08-30T09:53:15;96044.66;;;21.47;71.04
32761;BME280;19126;47.472;7.850;2023-08-30T09:55:45;96038.66;;;21.67;74.63
32761;BME280;19126;47.472;7.850;2023-08-30T09:58:15;96050.03;;;21.95;73.84
32761;BME280;19126;47.472;7.850;2023-08-30T10:00:43;96036.69;;;22.05;68.90
32761;BME280;19126;47.472;7.850;2023-08-30T10:03:11;96036.16;;;22.08;66.08
32761;BME280;19126;47.472;7.850;2023-08-30T10:05:39;96037.28;;;22.28;73.78
32761;BME280;19126;47.472;7.850;2023-08-30T10:08:08;96041.09;;;22.48;70.47
32761;BME280;19126;47.472;7.850;2023-08-30T10:10:36;96030.34;;;22.32;65.66
32761;BME280;19126;47.472;7.850;2023-08-30T10:13:06;96029.97;;;21.98;67.59
32761;BME280;19126;47.472;7.850;2023-08-30T10:15:40;96027.63;;;21.58;65.66
32761;BME280;19126;47.472;7.850;2023-08-30T10:18:09;96024.59;;;21.39;69.17
32761;BME280;19126;47.472;7.850;2023-08-30T10:20:38;96018.63;;;21.70;76.60
32761;BME280;19126;47.472;7.850;2023-08-30T10:23:06;96019.13;;;21.66;69.67
32761;BME280;19126;47.472;7.850;2023-08-30T10:25:35;96022.66;;;21.72;69.40
32761;BME280;19126;47.472;7.850;2023-08-30T10:28:03;96017.63;;;21.91;69.69
32761;BME280;19126;47.472;7.850;2023-08-30T10:30:31;96022.94;;;21.81;70.87
32761;BME280;19126;47.472;7.850;2023-08-30T10:33:00;96012.09;;;21.50;73.17
32761;BME280;19126;47.472;7.850;2023-08-30T10:35:29;96016.25;;;21.30;72.29
32761;BME280;19126;47.472;7.850;2023-08-30T10:37:58;96006.19;;;21.05;74.45
32761;BME280;19126;47.472;7.850;2023-08-30T10:40:26;96008.50;;;20.63;77.32
32761;BME280;19126;47.472;7.850;2023-08-30T10:43:00;96012.47;;;20.56;85.06
32761;BME280;19126;47.472;7.850;2023-08-30T10:45:28;96015.69;;;20.30;87.94
32761;BME280;19126;47.472;7.850;2023-08-30T10:48:00;96004.28;;;20.13;90.19
32761;BME280;19126;47.472;7.850;2023-08-30T10:50:33;96012.69;;;19.99;89.90
32761;BME280;19126;47.472;7.850;2023-08-30T10:53:01;96011.06;;;19.98;92.72
32761;BME280;19126;47.472;7.850;2023-08-30T10:55:30;96009.63;;;20.13;93.61
32761;BME280;19126;47.472;7.850;2023-08-30T10:58:02;96001.78;;;20.28;93.13
32761;BME280;19126;47.472;7.850;2023-08-30T11:00:31;96003.94;;;20.04;86.91
32761;BME280;19126;47.472;7.850;2023-08-30T11:03:00;96006.28;;;20.00;89.77
32761;BME280;19126;47.472;7.850;2023-08-30T11:05:30;96003.16;;;19.86;89.23
32761;BME280;19126;47.472;7.850;2023-08-30T11:07:57;96001.06;;;19.66;94.33
32761;BME280;19126;47.472;7.850;2023-08-30T11:10:24;95995.91;;;19.59;93.22
32761;BME280;19126;47.472;7.850;2023-08-30T11:12:52;96002.72;;;19.50;91.17
32761;BME280;19126;47.472;7.850;2023-08-30T11:15:19;96009.88;;;19.27;92.42
32761;BME280;19126;47.472;7.850;2023-08-30T11:17:48;96000.69;;;19.18;94.36
32761;BME280;19126;47.472;7.850;2023-08-30T11:20:17;95998.44;;;19.10;93.01
32761;BME280;19126;47.472;7.850;2023-08-30T11:22:47;95995.56;;;19.11;94.78
32761;BME280;19126;47.472;7.850;2023-08-30T11:25:15;95995.47;;;19.06;92.81
32761;BME280;19126;47.472;7.850;2023-08-30T11:27:43;95997.88;;;19.08;95.09
32761;BME280;19126;47.472;7.850;2023-08-30T11:30:12;95994.66;;;19.06;95.72
32761;BME280;19126;47.472;7.850;2023-08-30T11:32:40;95995.41;;;19.01;94.90
32761;BME280;19126;47.472;7.850;2023-08-30T11:35:09;95997.88;;;19.08;97.44
32761;BME280;19126;47.472;7.850;2023-08-30T11:37:37;95990.72;;;19.08;93.32
32761;BME280;19126;47.472;7.850;2023-08-30T11:40:08;95987.78;;;19.10;93.93
32761;BME280;19126;47.472;7.850;2023-08-30T11:42:38;95987.88;;;19.15;93.81
32761;BME280;19126;47.472;7.850;2023-08-30T11:45:07;95987.38;;;19.18;91.95
32761;BME280;19126;47.472;7.850;2023-08-30T11:47:35;95984.63;;;19.30;93.03
32761;BME280;19126;47.472;7.850;2023-08-30T11:50:03;95985.81;;;19.61;95.67
32761;BME280;19126;47.472;7.850;2023-08-30T11:52:33;95986.81;;;19.77;88.08
32761;BME280;19126;47.472;7.850;2023-08-30T11:55:04;95981.41;;;19.89;89.83
32761;BME280;19126;47.472;7.850;2023-08-30T11:57:33;95984.19;;;20.00;88.42
32761;BME280;19126;47.472;7.850;2023-08-30T12:00:09;95983.72;;;20.08;86.27
32761;BME280;19126;47.472;7.850;2023-08-30T12:02:36;95980.53;;;20.39;81.98
32761;BME280;19126;47.472;7.850;2023-08-30T12:05:05;95979.31;;;20.79;78.44
32761;BME280;19126;47.472;7.850;2023-08-30T12:07:32;95981.41;;;21.10;73.84
32761;BME280;19126;47.472;7.850;2023-08-30T12:10:06;95978.84;;;21.30;73.87
32761;BME280;19126;47.472;7.850;2023-08-30T12:12:34;95981.88;;;21.44;72.31
32761;BME280;19126;47.472;7.850;2023-08-30T12:15:07;95977.97;;;21.19;71.08
32761;BME280;19126;47.472;7.850;2023-08-30T12:17:35;95986.44;;;21.54;77.17
32761;BME280;19126;47.472;7.850;2023-08-30T12:20:03;95974.28;;;21.84;72.27
32761;BME280;19126;47.472;7.850;2023-08-30T12:22:38;95969.03;;;22.10;70.78
32761;BME280;19126;47.472;7.850;2023-08-30T12:25:18;95977.41;;;22.45;67.90
32761;BME280;19126;47.472;7.850;2023-08-30T12:27:46;95974.75;;;22.55;68.79
32761;BME280;19126;47.472;7.850;2023-08-30T12:30:14;95966.44;;;22.72;71.11
32761;BME280;19126;47.472;7.850;2023-08-30T12:32:43;95960.56;;;22.91;68.76
32761;BME280;19126;47.472;7.850;2023-08-30T12:35:10;95977.16;;;22.93;67.61
32761;BME280;19126;47.472;7.850;2023-08-30T12:37:38;95977.94;;;22.98;68.37
32761;BME280;19126;47.472;7.850;2023-08-30T12:40:06;95977.38;;;23.12;67.49
32761;BME280;19126;47.472;7.850;2023-08-30T12:42:35;95975.00;;;23.05;62.68
32761;BME280;19126;47.472;7.850;2023-08-30T12:45:04;95977.16;;;22.93;66.83
32761;BME280;19126;47.472;7.850;2023-08-30T12:47:31;95971.81;;;22.67;66.41
32761;BME280;19126;47.472;7.850;2023-08-30T12:49:59;95972.81;;;22.40;65.34
32761;BME280;19126;47.472;7.850;2023-08-30T12:52:26;95975.72;;;22.07;69.71
32761;BME280;19126;47.472;7.850;2023-08-30T12:54:53;95970.25;;;21.71;66.68
32761;BME280;19126;47.472;7.850;2023-08-30T12:57:21;95977.59;;;21.43;70.17
32761;BME280;19126;47.472;7.850;2023-08-30T12:59:49;95971.84;;;21.19;76.63
32761;BME280;19126;47.472;7.850;2023-08-30T13:02:17;95967.59;;;21.23;75.84
32761;BME280;19126;47.472;7.850;2023-08-30T13:04:44;95972.16;;;21.28;71.97
32761;BME280;19126;47.472;7.850;2023-08-30T13:07:11;95962.97;;;21.13;69.18